createdAt,value
2017-11-30T00:00:42.764Z,99935.95
2017-11-30T00:03:08.581Z,99928.64
2017-11-30T00:05:34.730Z,99926.21
2017-11-30T00:08:00.545Z,99920.77
2017-11-30T00:10:26.361Z,99926.64
2017-11-30T00:12:52.140Z,99924.69
2017-11-30T00:15:17.985Z,99923.58
2017-11-30T00:17:43.780Z,99924.09
2017-11-30T00:20:09.563Z,99924.86
2017-11-30T00:22:35.563Z,99921.84
2017-11-30T00:25:01.363Z,99920.89
2017-11-30T00:27:27.144Z,99919.05
2017-11-30T00:29:52.961Z,99917.43
2017-11-30T00:32:18.749Z,99917.67
2017-11-30T00:34:44.525Z,99914.06
2017-11-30T00:37:10.484Z,99916.97
2017-11-30T00:39:36.298Z,99914.84
2017-11-30T00:42:02.109Z,99919.77
2017-11-30T00:44:31.828Z,99913.74
2017-11-30T00:46:57.608Z,99914.65
2017-11-30T00:49:23.468Z,99913.89
2017-11-30T00:51:49.274Z,99911.73
2017-11-30T00:54:15.076Z,99908.22
2017-11-30T00:56:40.865Z,99909.75
2017-11-30T00:59:06.677Z,99915.43
2017-11-30T01:01:32.461Z,99911.30
2017-11-30T01:03:58.235Z,99911.48
2017-11-30T01:06:24.043Z,99915.73
2017-11-30T01:08:49.824Z,99905.12
2017-11-30T01:11:15.613Z,99904.22
2017-11-30T01:13:41.405Z,99905.53
2017-11-30T01:16:07.198Z,99898.51
2017-11-30T01:18:33.002Z,99901.55
2017-11-30T01:20:59.724Z,99902.16
2017-11-30T01:23:25.517Z,99905.02
2017-11-30T01:25:51.296Z,99895.81
2017-11-30T01:28:17.121Z,99897.92
2017-11-30T01:30:42.911Z,99891.63
2017-11-30T01:33:08.701Z,99890.19
2017-11-30T01:35:34.781Z,99888.13
2017-11-30T01:38:00.570Z,99885.44
2017-11-30T01:40:26.382Z,99892.01
2017-11-30T01:42:52.188Z,99887.44
2017-11-30T01:45:17.989Z,99883.09
2017-11-30T01:47:43.777Z,99890.02
2017-11-30T01:50:09.650Z,99881.87
2017-11-30T01:52:35.435Z,99885.30
2017-11-30T01:55:01.246Z,99886.30
2017-11-30T01:57:27.043Z,99886.55
2017-11-30T01:59:52.845Z,99889.27
2017-11-30T02:02:18.632Z,99889.73
2017-11-30T02:04:44.427Z,99888.50
2017-11-30T02:07:10.249Z,99884.21
2017-11-30T02:09:36.069Z,99882.45
2017-11-30T02:12:01.907Z,99883.16
2017-11-30T02:14:27.916Z,99880.48
2017-11-30T02:16:53.713Z,99883.73
2017-11-30T02:19:19.519Z,99880.48
2017-11-30T02:21:45.336Z,99874.43
2017-11-30T02:24:11.148Z,99870.56
2017-11-30T02:26:36.948Z,99871.80
2017-11-30T02:29:02.817Z,99873.38
2017-11-30T02:31:28.630Z,99869.80
2017-11-30T02:33:54.468Z,99863.03
2017-11-30T02:36:20.590Z,99867.04
2017-11-30T02:38:46.416Z,99864.13
2017-11-30T02:41:12.248Z,99863.46
2017-11-30T02:43:38.084Z,99865.13
2017-11-30T02:46:03.876Z,99858.92
2017-11-30T02:48:29.700Z,99859.69
2017-11-30T02:50:56.272Z,99854.15
2017-11-30T02:53:22.085Z,99859.27
2017-11-30T02:55:47.889Z,99849.05
2017-11-30T02:58:13.724Z,99851.16
2017-11-30T03:00:39.531Z,99848.48
2017-11-30T03:03:05.389Z,99845.95
2017-11-30T03:05:31.213Z,99844.03
2017-11-30T03:07:57.013Z,99832.86
2017-11-30T03:10:22.813Z,99847.00
2017-11-30T03:12:48.648Z,99836.69
2017-11-30T03:15:14.447Z,99834.10
2017-11-30T03:17:40.252Z,99840.16
2017-11-30T03:20:06.048Z,99834.75
2017-11-30T03:22:31.841Z,99830.75
2017-11-30T03:24:57.631Z,99836.73
2017-11-30T03:27:23.444Z,99829.30
2017-11-30T03:29:49.228Z,99828.53
2017-11-30T03:32:15.030Z,99826.97
2017-11-30T03:34:41.818Z,99822.55
2017-11-30T03:37:07.605Z,99816.34
2017-11-30T03:39:33.724Z,99823.06
2017-11-30T03:41:59.541Z,99824.81
2017-11-30T03:44:25.349Z,99819.69
2017-11-30T03:46:51.142Z,99823.52
2017-11-30T03:49:17.292Z,99822.18
2017-11-30T03:51:43.080Z,99818.61
2017-11-30T03:54:08.869Z,99820.48
2017-11-30T03:56:34.832Z,99817.59
2017-11-30T03:59:00.652Z,99821.97
2017-11-30T04:01:26.467Z,99824.17
2017-11-30T04:03:52.509Z,99821.92
2017-11-30T04:06:18.292Z,99827.75
2017-11-30T04:08:44.088Z,99817.08
2017-11-30T04:11:10.975Z,99823.67
2017-11-30T04:13:36.764Z,99818.61
2017-11-30T04:16:02.561Z,99816.30
2017-11-30T04:18:28.360Z,99827.22
2017-11-30T04:20:54.154Z,99824.81
2017-11-30T04:23:20.283Z,99824.03
2017-11-30T04:25:46.065Z,99825.65
2017-11-30T04:28:11.850Z,99825.72
2017-11-30T04:30:37.661Z,99830.22
2017-11-30T04:33:03.440Z,99824.38
2017-11-30T04:35:29.215Z,99822.34
2017-11-30T04:37:55.039Z,99826.28
2017-11-30T04:40:20.848Z,99825.11
2017-11-30T04:42:46.632Z,99828.55
2017-11-30T04:45:12.416Z,99821.30
2017-11-30T04:47:38.197Z,99817.76
2017-11-30T04:50:03.994Z,99824.28
2017-11-30T04:52:30.651Z,99828.61
2017-11-30T04:54:56.424Z,99830.47
2017-11-30T04:57:22.220Z,99832.48
2017-11-30T04:59:48.047Z,99833.68
2017-11-30T05:02:13.856Z,99832.59
2017-11-30T05:04:39.653Z,99835.45
2017-11-30T05:07:05.459Z,99833.92
2017-11-30T05:09:31.248Z,99838.12
2017-11-30T05:11:57.065Z,99834.30
2017-11-30T05:14:23.384Z,99838.46
2017-11-30T05:16:49.168Z,99831.73
2017-11-30T05:19:14.961Z,99829.34
2017-11-30T05:21:41.150Z,99829.16
2017-11-30T05:24:06.954Z,99831.69
2017-11-30T05:26:32.736Z,99826.14
2017-11-30T05:28:58.546Z,99825.05
2017-11-30T05:31:24.330Z,99827.72
2017-11-30T05:33:50.100Z,99820.00
2017-11-30T05:36:15.916Z,99822.44
2017-11-30T05:38:41.702Z,99820.66
2017-11-30T05:41:07.883Z,99819.95
2017-11-30T05:43:33.683Z,99824.20
2017-11-30T05:45:59.471Z,99823.38
2017-11-30T05:48:25.264Z,99822.86
2017-11-30T05:50:51.073Z,99819.51
2017-11-30T05:53:16.853Z,99818.75
2017-11-30T05:55:42.632Z,99814.55
2017-11-30T05:58:08.432Z,99817.66
2017-11-30T06:00:34.211Z,99812.78
2017-11-30T06:02:59.987Z,99819.30
2017-11-30T06:05:26.704Z,99825.45
2017-11-30T06:07:52.480Z,99815.97
2017-11-30T06:10:18.276Z,99808.72
2017-11-30T06:12:44.461Z,99808.39
2017-11-30T06:15:10.242Z,99811.81
2017-11-30T06:17:36.033Z,99814.92
2017-11-30T06:20:01.892Z,99810.44
2017-11-30T06:22:27.701Z,99808.80
2017-11-30T06:24:53.512Z,99803.09
2017-11-30T06:27:19.601Z,99800.09
2017-11-30T06:29:45.395Z,99803.95
2017-11-30T06:32:11.353Z,99811.30
2017-11-30T06:34:37.157Z,99807.20
2017-11-30T06:37:02.931Z,99809.97
2017-11-30T06:39:28.712Z,99814.45
2017-11-30T06:41:54.723Z,99813.59
2017-11-30T06:44:20.540Z,99807.39
2017-11-30T06:46:46.337Z,99809.34
2017-11-30T06:49:12.151Z,99806.06
2017-11-30T06:51:38.179Z,99806.64
2017-11-30T06:54:03.972Z,99805.06
2017-11-30T06:56:29.788Z,99812.94
2017-11-30T06:58:55.621Z,99813.80
2017-11-30T07:01:21.404Z,99814.17
2017-11-30T07:03:47.197Z,99824.23
2017-11-30T07:06:13.022Z,99808.68
2017-11-30T07:08:38.807Z,99815.20
2017-11-30T07:11:04.824Z,99816.13
2017-11-30T07:13:30.639Z,99817.89
2017-11-30T07:15:56.768Z,99817.84
2017-11-30T07:18:22.550Z,99822.70
2017-11-30T07:20:48.337Z,99819.19
2017-11-30T07:23:14.140Z,99817.41
2017-11-30T07:25:39.919Z,99821.13
2017-11-30T07:28:05.707Z,99823.42
2017-11-30T07:30:31.524Z,99818.45
2017-11-30T07:32:57.340Z,99821.32
2017-11-30T07:35:23.159Z,99810.06
2017-11-30T07:40:27.096Z,99818.60
2017-11-30T07:42:53.237Z,99817.05
2017-11-30T07:45:19.041Z,99819.75
2017-11-30T07:47:45.252Z,99812.58
2017-11-30T07:50:11.053Z,99824.50
2017-11-30T07:52:36.845Z,99827.13
2017-11-30T07:55:02.678Z,99824.03
2017-11-30T07:57:28.455Z,99824.95
2017-11-30T07:59:54.232Z,99830.56
2017-11-30T08:02:20.042Z,99839.30
2017-11-30T08:04:45.824Z,99830.86
2017-11-30T08:07:11.605Z,99828.34
2017-11-30T08:09:37.419Z,99832.97
2017-11-30T08:12:03.208Z,99835.17
2017-11-30T08:14:28.975Z,99834.44
2017-11-30T08:16:55.331Z,99832.88
2017-11-30T08:19:21.132Z,99832.25
2017-11-30T08:21:47.062Z,99836.73
2017-11-30T08:24:12.908Z,99830.25
2017-11-30T08:26:38.713Z,99840.46
2017-11-30T08:29:04.983Z,99836.25
2017-11-30T08:31:30.787Z,99838.03
2017-11-30T08:33:56.576Z,99834.73
2017-11-30T08:36:22.389Z,99840.66
2017-11-30T08:38:48.204Z,99841.36
2017-11-30T08:41:14.005Z,99843.22
2017-11-30T08:43:40.758Z,99832.50
2017-11-30T08:46:06.564Z,99837.98
2017-11-30T08:48:32.653Z,99839.84
2017-11-30T08:50:58.660Z,99832.16
2017-11-30T08:53:24.460Z,99838.08
2017-11-30T08:55:50.263Z,99831.69
2017-11-30T08:58:16.059Z,99831.30
2017-11-30T09:00:41.929Z,99841.32
2017-11-30T09:03:07.798Z,99834.41
2017-11-30T09:05:33.940Z,99829.39
2017-11-30T09:08:01.221Z,99833.50
2017-11-30T09:10:27.002Z,99834.68
2017-11-30T09:12:52.850Z,99830.28
2017-11-30T09:15:19.029Z,99828.70
2017-11-30T09:17:44.892Z,99832.31
2017-11-30T09:20:10.710Z,99828.67
2017-11-30T09:22:36.834Z,99831.45
2017-11-30T09:25:02.698Z,99832.44
2017-11-30T09:27:28.484Z,99826.23
2017-11-30T09:29:54.264Z,99830.67
2017-11-30T09:32:20.197Z,99835.82
2017-11-30T09:34:46.033Z,99836.95
2017-11-30T09:37:11.823Z,99829.68
2017-11-30T09:39:37.640Z,99833.41
2017-11-30T09:42:03.473Z,99828.37
2017-11-30T09:44:29.444Z,99825.03
2017-11-30T09:46:55.251Z,99825.87
2017-11-30T09:49:21.052Z,99824.80
2017-11-30T09:51:47.136Z,99824.50
2017-11-30T09:54:14.680Z,99822.98
2017-11-30T09:56:40.483Z,99824.45
2017-11-30T09:59:07.108Z,99816.52
2017-11-30T10:01:33.844Z,99816.03
2017-11-30T10:04:01.266Z,99813.50
2017-11-30T10:06:27.925Z,99814.11
2017-11-30T10:08:54.557Z,99810.35
2017-11-30T10:11:21.279Z,99809.61
2017-11-30T10:13:47.490Z,99806.04
2017-11-30T10:16:13.295Z,99811.09
2017-11-30T10:18:39.728Z,99811.37
2017-11-30T10:21:06.194Z,99814.91
2017-11-30T10:23:33.064Z,99817.76
2017-11-30T10:25:59.478Z,99812.97
2017-11-30T10:28:27.191Z,99817.74
2017-11-30T10:30:54.292Z,99816.73
2017-11-30T10:33:20.199Z,99821.20
2017-11-30T10:35:46.350Z,99820.63
2017-11-30T10:38:12.200Z,99815.73
2017-11-30T10:40:38.019Z,99814.06
2017-11-30T10:43:03.928Z,99812.91
2017-11-30T10:45:29.733Z,99821.16
2017-11-30T10:47:55.783Z,99815.27
2017-11-30T10:50:21.580Z,99816.56
2017-11-30T10:52:47.360Z,99819.93
2017-11-30T10:55:13.148Z,99811.33
2017-11-30T10:57:38.932Z,99817.67
2017-11-30T11:00:04.719Z,99813.19
2017-11-30T11:02:30.539Z,99807.53
2017-11-30T11:04:56.343Z,99812.70
2017-11-30T11:07:22.122Z,99815.24
2017-11-30T11:09:47.936Z,99811.84
2017-11-30T11:12:13.729Z,99813.05
2017-11-30T11:14:39.521Z,99819.27
2017-11-30T11:17:05.563Z,99815.27
2017-11-30T11:19:31.336Z,99814.02
2017-11-30T11:21:57.123Z,99813.77
2017-11-30T11:24:23.974Z,99807.98
2017-11-30T11:26:50.475Z,99809.02
2017-11-30T11:29:16.286Z,99815.05
2017-11-30T11:31:42.081Z,99804.23
2017-11-30T11:34:08.511Z,99797.08
2017-11-30T11:36:34.297Z,99804.67
2017-11-30T11:39:00.160Z,99807.70
2017-11-30T11:41:26.547Z,99803.42
2017-11-30T11:43:52.913Z,99809.57
2017-11-30T11:46:18.696Z,99809.95
2017-11-30T11:48:44.520Z,99814.25
2017-11-30T11:51:10.327Z,99811.47
2017-11-30T11:53:37.011Z,99816.16
2017-11-30T11:56:04.278Z,99813.67
2017-11-30T11:58:30.414Z,99809.85
2017-11-30T12:00:56.498Z,99812.16
2017-11-30T12:03:22.420Z,99809.16
2017-11-30T12:05:48.254Z,99801.76
2017-11-30T12:08:14.381Z,99808.91
2017-11-30T12:10:40.364Z,99805.48
2017-11-30T12:13:06.177Z,99809.13
2017-11-30T12:15:32.851Z,99815.33
2017-11-30T12:17:59.462Z,99813.77
2017-11-30T12:20:26.070Z,99806.64
2017-11-30T12:22:52.688Z,99806.59
2017-11-30T12:25:19.309Z,99815.98
2017-11-30T12:27:45.792Z,99813.30
2017-11-30T12:30:12.042Z,99806.78
2017-11-30T12:32:37.916Z,99811.70
2017-11-30T12:35:03.716Z,99814.88
2017-11-30T12:37:29.516Z,99808.44
2017-11-30T12:39:56.001Z,99809.48
2017-11-30T12:42:22.119Z,99809.63
2017-11-30T12:44:48.001Z,99810.33
2017-11-30T12:47:14.361Z,99815.87
2017-11-30T12:49:40.592Z,99814.85
2017-11-30T12:52:07.013Z,99818.98
2017-11-30T12:54:32.883Z,99823.84
2017-11-30T12:56:59.502Z,99818.14
2017-11-30T12:59:25.298Z,99822.76
2017-11-30T13:01:51.115Z,99821.91
2017-11-30T13:04:17.298Z,99823.44
2017-11-30T13:06:44.305Z,99822.30
2017-11-30T13:09:10.109Z,99824.98
2017-11-30T13:11:36.519Z,99826.67
2017-11-30T13:14:03.257Z,99832.25
2017-11-30T13:16:29.134Z,99836.21
2017-11-30T13:18:55.667Z,99840.08
2017-11-30T13:21:21.518Z,99835.68
2017-11-30T13:23:47.320Z,99836.32
2017-11-30T13:26:13.456Z,99831.44
2017-11-30T13:28:39.271Z,99835.78
2017-11-30T13:31:05.074Z,99839.01
2017-11-30T13:33:31.729Z,99835.64
2017-11-30T13:35:57.541Z,99836.89
2017-11-30T13:38:24.170Z,99836.19
2017-11-30T13:40:50.065Z,99843.80
2017-11-30T13:43:15.838Z,99844.97
2017-11-30T13:45:41.843Z,99847.00
2017-11-30T13:48:07.755Z,99847.23
2017-11-30T13:50:34.092Z,99846.98
2017-11-30T13:53:00.291Z,99850.30
2017-11-30T13:55:26.340Z,99847.16
2017-11-30T13:57:52.139Z,99857.11
2017-11-30T14:00:17.924Z,99855.23
2017-11-30T14:02:44.579Z,99856.09
2017-11-30T14:05:10.402Z,99858.11
2017-11-30T14:07:36.187Z,99862.25
2017-11-30T14:10:01.992Z,99864.70
2017-11-30T14:12:28.721Z,99868.12
2017-11-30T14:14:54.579Z,99869.95
2017-11-30T14:17:21.212Z,99872.88
2017-11-30T14:19:47.096Z,99876.56
2017-11-30T14:22:12.883Z,99876.31
2017-11-30T14:24:38.660Z,99881.64
2017-11-30T14:27:04.462Z,99885.88
2017-11-30T14:29:30.255Z,99886.94
2017-11-30T14:31:56.379Z,99894.14
2017-11-30T14:34:22.168Z,99899.77
2017-11-30T14:36:47.977Z,99891.45
2017-11-30T14:39:13.943Z,99894.70
2017-11-30T14:41:40.733Z,99901.05
2017-11-30T14:44:06.515Z,99903.70
2017-11-30T14:46:33.146Z,99912.67
2017-11-30T14:48:58.922Z,99907.84
2017-11-30T14:51:24.928Z,99914.52
2017-11-30T14:53:51.335Z,99911.94
2017-11-30T14:56:17.694Z,99913.59
2017-11-30T14:58:43.478Z,99914.83
2017-11-30T15:01:09.493Z,99916.34
2017-11-30T15:03:35.445Z,99921.52
2017-11-30T15:06:01.984Z,99919.63
2017-11-30T15:08:28.163Z,99917.66
2017-11-30T15:10:54.030Z,99915.64
2017-11-30T15:13:19.839Z,99914.30
2017-11-30T15:15:45.878Z,99919.63
2017-11-30T15:18:12.103Z,99915.47
2017-11-30T15:20:38.688Z,99923.75
2017-11-30T15:23:05.269Z,99924.11
2017-11-30T15:25:31.810Z,99927.59
2017-11-30T15:27:58.388Z,99935.88
2017-11-30T15:30:24.178Z,99935.20
2017-11-30T15:32:49.987Z,99923.54
2017-11-30T15:35:16.067Z,99941.25
2017-11-30T15:37:41.847Z,99943.88
2017-11-30T15:40:07.638Z,99943.16
2017-11-30T15:42:33.694Z,99945.27
2017-11-30T15:45:00.135Z,99943.27
2017-11-30T15:47:26.470Z,99947.05
2017-11-30T15:49:52.795Z,99949.58
2017-11-30T15:52:18.655Z,99947.23
2017-11-30T15:54:44.443Z,99940.75
2017-11-30T15:57:10.538Z,99942.17
2017-11-30T15:59:37.014Z,99949.94
2017-11-30T16:02:03.579Z,99951.85
2017-11-30T16:04:29.684Z,99947.41
2017-11-30T16:06:56.280Z,99948.91
2017-11-30T16:09:22.119Z,99958.41
2017-11-30T16:11:48.474Z,99951.95
2017-11-30T16:14:15.258Z,99956.75
2017-11-30T16:16:42.011Z,99967.02
2017-11-30T16:19:08.798Z,99969.80
2017-11-30T16:21:35.508Z,99971.37
2017-11-30T16:24:02.342Z,99972.23
2017-11-30T16:26:28.220Z,99970.77
2017-11-30T16:28:54.025Z,99977.70
2017-11-30T16:31:19.807Z,99974.69
2017-11-30T16:33:45.619Z,99971.72
2017-11-30T16:36:11.391Z,99976.03
2017-11-30T16:38:37.184Z,99978.24
2017-11-30T16:41:02.984Z,99976.61
2017-11-30T16:43:28.770Z,99982.50
2017-11-30T16:45:54.575Z,99983.61
2017-11-30T16:48:20.504Z,99983.36
2017-11-30T16:50:46.291Z,99989.21
2017-11-30T16:53:12.087Z,99985.37
2017-11-30T16:55:38.108Z,99990.61
2017-11-30T16:58:03.897Z,99985.57
2017-11-30T17:00:29.740Z,99985.45
2017-11-30T17:02:55.528Z,99992.20
2017-11-30T17:05:21.310Z,99988.14
2017-11-30T17:07:47.150Z,100002.51
2017-11-30T17:10:12.975Z,99998.06
2017-11-30T17:12:38.759Z,100003.45
2017-11-30T17:15:04.538Z,100008.47
2017-11-30T17:17:30.372Z,100012.94
2017-11-30T17:19:56.162Z,100015.76
2017-11-30T17:22:21.963Z,100011.90
2017-11-30T17:24:47.786Z,100018.03
2017-11-30T17:27:13.616Z,100016.39
2017-11-30T17:29:39.392Z,100016.62
2017-11-30T17:32:05.197Z,100017.19
2017-11-30T17:34:31.000Z,100015.84
2017-11-30T17:36:56.809Z,100015.14
2017-11-30T17:39:22.612Z,100021.60
2017-11-30T17:41:48.402Z,100020.10
2017-11-30T17:44:15.081Z,100026.12
2017-11-30T17:46:40.879Z,100022.50
2017-11-30T17:49:06.669Z,100026.34
2017-11-30T17:51:32.495Z,100030.06
2017-11-30T17:53:58.285Z,100032.73
2017-11-30T17:56:24.084Z,100031.66
2017-11-30T17:58:50.198Z,100037.80
2017-11-30T18:01:15.975Z,100043.28
2017-11-30T18:03:41.763Z,100041.34
2017-11-30T18:06:08.064Z,100047.43
2017-11-30T18:08:33.863Z,100045.38
2017-11-30T18:10:59.648Z,100054.98
2017-11-30T18:13:25.426Z,100050.38
2017-11-30T18:15:51.206Z,100050.03
2017-11-30T18:18:17.031Z,100060.76
2017-11-30T18:20:42.812Z,100058.38
2017-11-30T18:23:08.594Z,100061.14
2017-11-30T18:25:34.397Z,100062.83
2017-11-30T18:28:00.179Z,100060.34
2017-11-30T18:30:25.963Z,100061.75
2017-11-30T18:32:51.756Z,100066.19
2017-11-30T18:35:17.546Z,100065.38
2017-11-30T18:37:43.347Z,100068.61
2017-11-30T18:40:09.338Z,100076.62
2017-11-30T18:42:35.138Z,100078.98
2017-11-30T18:45:00.916Z,100079.45
2017-11-30T18:47:26.751Z,100077.00
2017-11-30T18:49:52.544Z,100085.69
2017-11-30T18:52:18.475Z,100088.02
2017-11-30T18:54:44.297Z,100091.84
2017-11-30T18:57:10.078Z,100090.50
2017-11-30T18:59:35.861Z,100097.52
2017-11-30T19:02:02.490Z,100102.16
2017-11-30T19:04:28.308Z,100105.41
2017-11-30T19:06:54.092Z,100107.56
2017-11-30T19:09:19.975Z,100100.83
2017-11-30T19:11:45.827Z,100112.13
2017-11-30T19:14:11.587Z,100115.08
2017-11-30T19:16:37.396Z,100122.47
2017-11-30T19:19:03.186Z,100122.67
2017-11-30T19:21:28.975Z,100119.80
2017-11-30T19:23:54.823Z,100128.63
2017-11-30T19:26:20.652Z,100130.14
2017-11-30T19:28:46.488Z,100132.79
2017-11-30T19:31:12.321Z,100128.23
2017-11-30T19:33:38.135Z,100134.94
2017-11-30T19:36:03.910Z,100133.07
2017-11-30T19:38:29.947Z,100135.06
2017-11-30T19:40:55.794Z,100138.36
2017-11-30T19:43:21.589Z,100134.02
2017-11-30T19:45:47.394Z,100139.36
2017-11-30T19:48:13.208Z,100140.52
2017-11-30T19:50:38.996Z,100148.09
2017-11-30T19:53:04.865Z,100148.83
2017-11-30T19:55:31.326Z,100147.34
2017-11-30T19:57:57.397Z,100153.27
2017-11-30T20:00:23.198Z,100156.31
2017-11-30T20:02:49.869Z,100160.97
2017-11-30T20:05:15.682Z,100161.56
2017-11-30T20:07:41.490Z,100172.66
2017-11-30T20:10:07.303Z,100166.31
2017-11-30T20:12:33.136Z,100173.02
2017-11-30T20:14:58.977Z,100173.98
2017-11-30T20:17:25.106Z,100177.20
2017-11-30T20:19:50.899Z,100180.74
2017-11-30T20:22:16.726Z,100191.67
2017-11-30T20:24:42.828Z,100190.20
2017-11-30T20:27:08.688Z,100189.14
2017-11-30T20:29:34.515Z,100191.47
2017-11-30T20:32:00.373Z,100187.86
2017-11-30T20:34:26.177Z,100195.37
2017-11-30T20:36:52.187Z,100195.25
2017-11-30T20:39:18.000Z,100202.69
2017-11-30T20:41:43.790Z,100209.27
2017-11-30T20:44:09.629Z,100211.16
2017-11-30T20:46:35.461Z,100218.48
2017-11-30T20:49:01.291Z,100218.62
2017-11-30T20:51:27.120Z,100225.03
2017-11-30T20:53:52.922Z,100223.37
2017-11-30T20:56:18.744Z,100225.31
2017-11-30T20:58:44.855Z,100235.00
2017-11-30T21:01:10.636Z,100234.68
2017-11-30T21:03:36.449Z,100238.80
2017-11-30T21:06:02.607Z,100237.69
2017-11-30T21:08:28.410Z,100241.70
2017-11-30T21:10:54.199Z,100236.28
2017-11-30T21:13:20.007Z,100236.66
2017-11-30T21:15:45.808Z,100244.55
2017-11-30T21:18:11.579Z,100250.98
2017-11-30T21:20:37.719Z,100249.23
2017-11-30T21:23:03.500Z,100256.90
2017-11-30T21:25:29.272Z,100252.37
2017-11-30T21:27:55.075Z,100255.34
2017-11-30T21:30:20.863Z,100266.36
2017-11-30T21:32:46.648Z,100263.22
2017-11-30T21:35:12.436Z,100262.12
2017-11-30T21:37:38.210Z,100265.66
2017-11-30T21:40:04.002Z,100269.55
2017-11-30T21:42:29.812Z,100271.11
2017-11-30T21:44:55.616Z,100272.58
2017-11-30T21:47:21.398Z,100274.03
2017-11-30T21:49:47.229Z,100274.52
2017-11-30T21:52:13.127Z,100277.52
2017-11-30T21:54:38.907Z,100280.61
2017-11-30T21:57:05.050Z,100280.66
2017-11-30T21:59:31.383Z,100286.66
2017-11-30T22:01:57.183Z,100284.33
2017-11-30T22:04:23.013Z,100286.43
2017-11-30T22:06:49.846Z,100297.91
2017-11-30T22:09:15.692Z,100301.66
2017-11-30T22:11:42.237Z,100301.28
2017-11-30T22:14:09.034Z,100290.98
2017-11-30T22:16:35.900Z,100304.17
2017-11-30T22:19:01.863Z,100297.19
2017-11-30T22:21:27.982Z,100298.80
2017-11-30T22:23:54.019Z,100303.86
2017-11-30T22:26:19.966Z,100310.00
2017-11-30T22:28:45.779Z,100307.42
2017-11-30T22:31:11.811Z,100320.35
2017-11-30T22:33:37.665Z,100322.74
2017-11-30T22:36:03.592Z,100317.80
2017-11-30T22:38:29.424Z,100322.23
2017-11-30T22:40:55.219Z,100319.48
2017-11-30T22:43:21.035Z,100331.61
2017-11-30T22:45:46.842Z,100334.88
2017-11-30T22:48:13.503Z,100338.33
2017-11-30T22:50:39.337Z,100339.69
2017-11-30T22:53:05.183Z,100339.27
2017-11-30T22:55:31.031Z,100348.63
2017-11-30T22:57:56.853Z,100355.86
2017-11-30T23:00:22.678Z,100354.34
2017-11-30T23:02:48.497Z,100354.23
2017-11-30T23:05:14.319Z,100352.67
2017-11-30T23:07:40.163Z,100353.38
2017-11-30T23:10:05.939Z,100360.81
2017-11-30T23:12:31.840Z,100364.75
2017-11-30T23:14:57.616Z,100367.09
2017-11-30T23:17:23.435Z,100370.42
2017-11-30T23:19:49.222Z,100372.38
2017-11-30T23:22:15.009Z,100370.96
2017-11-30T23:24:40.922Z,100373.74
2017-11-30T23:27:06.724Z,100378.20
2017-11-30T23:29:32.620Z,100374.28
2017-11-30T23:31:58.464Z,100373.08
2017-11-30T23:34:24.286Z,100364.36
2017-11-30T23:36:50.110Z,100382.31
2017-11-30T23:39:15.924Z,100378.20
2017-11-30T23:41:41.724Z,100382.53
2017-11-30T23:44:07.587Z,100382.13
2017-11-30T23:46:33.448Z,100387.20
2017-11-30T23:48:59.211Z,100392.66
2017-11-30T23:51:25.015Z,100395.28
2017-11-30T23:53:50.820Z,100395.63
2017-11-30T23:56:16.605Z,100394.97
2017-11-30T23:58:42.762Z,100397.11
